Time;durP1;ratioP1;P1;durP2;ratioP2;P2;SDS_P1;SDS_P2;PMS_P1;PMS_P2;Temp;Humidity;BMP_temperature;BMP_pressure;BME280_temperature;BME280_humidity;BME280_pressure;Samples;Min_cycle;Max_cycle;Signal;HPM_P1;HPM_P2
2021/07/13 00:02:23;;;;;;;12.18;11.02;;;19.30;99.90;;;;;;5070831;28;20085;-79
2021/07/13 00:04:49;;;;;;;11.82;10.73;;;19.20;99.90;;;;;;5070869;28;20487;-79
2021/07/13 00:07:15;;;;;;;13.85;12.10;;;19.20;99.90;;;;;;5072170;28;20017;-78
2021/07/13 00:09:41;;;;;;;12.25;11.07;;;19.10;99.90;;;;;;5054046;28;20021;-80
2021/07/13 00:12:09;;;;;;;13.98;12.57;;;19.10;99.90;;;;;;5070517;28;20040;-80
2021/07/13 00:14:35;;;;;;;16.10;12.73;;;19.10;99.90;;;;;;5072292;28;20028;-79
2021/07/13 00:17:02;;;;;;;14.32;13.02;;;19.10;99.90;;;;;;5070666;28;20439;-78
2021/07/13 00:19:28;;;;;;;15.15;13.07;;;19.10;99.90;;;;;;5071988;28;20025;-78
2021/07/13 00:21:53;;;;;;;13.98;12.57;;;19.10;99.90;;;;;;5070487;28;20146;-78
2021/07/13 00:24:19;;;;;;;15.02;13.52;;;19.00;99.90;;;;;;5063687;28;20064;-79
2021/07/13 00:26:45;;;;;;;15.60;13.93;;;19.00;99.90;;;;;;5072154;28;20024;-78
2021/07/13 00:29:10;;;;;;;15.90;14.40;;;19.00;99.90;;;;;;5070386;28;20049;-79
2021/07/13 00:31:36;;;;;;;16.52;13.57;;;19.00;99.90;;;;;;5070490;28;20113;-80
2021/07/13 00:34:02;;;;;;;16.77;13.65;;;19.00;99.90;;;;;;5070585;28;20071;-79
2021/07/13 00:36:28;;;;;;;16.83;14.48;;;19.00;99.90;;;;;;5053954;28;20396;-79
2021/07/13 00:38:53;;;;;;;17.77;14.18;;;18.90;99.90;;;;;;5072276;28;20118;-78
2021/07/13 00:41:19;;;;;;;15.75;13.82;;;18.90;99.90;;;;;;5071771;28;20016;-79
2021/07/13 00:43:47;;;;;;;15.50;14.00;;;18.80;99.90;;;;;;5072141;28;20036;-78
2021/07/13 00:46:12;;;;;;;15.27;13.68;;;18.80;99.90;;;;;;5053609;28;20020;-78
2021/07/13 00:48:38;;;;;;;15.65;14.05;;;18.70;99.90;;;;;;5070414;28;20020;-82
2021/07/13 00:51:05;;;;;;;15.20;13.65;;;18.70;99.90;;;;;;5070717;28;20414;-80
2021/07/13 00:53:31;;;;;;;15.85;14.20;;;18.80;99.90;;;;;;5070280;28;20475;-78
2021/07/13 00:55:57;;;;;;;16.15;14.45;;;18.80;99.90;;;;;;5053566;28;20035;-78
2021/07/13 00:58:24;;;;;;;17.20;15.40;;;18.80;99.90;;;;;;5053770;28;20116;-79
2021/07/13 01:00:51;;;;;;;16.35;14.75;;;18.80;99.90;;;;;;5053703;28;20025;-79
2021/07/13 01:03:16;;;;;;;16.35;14.75;;;18.80;99.90;;;;;;5057494;28;20376;-79
2021/07/13 01:05:46;;;;;;;14.73;13.23;;;18.80;99.90;;;;;;5073900;28;20028;-85
2021/07/13 01:08:35;;;;;;;14.93;13.27;;;18.80;99.90;;;;;;5057282;28;20440;-79
2021/07/13 01:11:26;;;;;;;14.82;13.25;;;18.80;99.90;;;;;;5075083;28;20020;-79
2021/07/13 01:14:29;;;;;;;15.18;12.75;;;18.70;99.90;;;;;;5055523;28;20061;-78
2021/07/13 01:17:01;;;;;;;14.20;12.80;;;18.70;99.90;;;;;;5037379;28;20052;-79
2021/07/13 01:19:45;;;;;;;14.43;13.02;;;18.70;99.90;;;;;;5036907;28;20025;-79
2021/07/13 01:22:19;;;;;;;15.27;13.50;;;18.70;99.90;;;;;;5037146;28;20028;-81
2021/07/13 01:25:03;;;;;;;13.93;12.48;;;18.70;99.90;;;;;;5036491;28;20491;-79
2021/07/13 01:27:38;;;;;;;14.05;12.65;;;18.70;99.90;;;;;;5037167;28;20029;-78
2021/07/13 01:30:15;;;;;;;13.35;12.00;;;18.70;99.90;;;;;;5036755;28;20028;-78
2021/07/13 01:32:45;;;;;;;13.20;11.93;;;18.60;99.90;;;;;;5054702;28;20028;-80
2021/07/13 01:35:15;;;;;;;13.73;12.05;;;18.60;99.90;;;;;;5054408;28;20512;-79
2021/07/13 01:37:44;;;;;;;13.90;12.60;;;18.60;99.90;;;;;;5036898;28;20384;-78
2021/07/13 01:40:11;;;;;;;14.13;12.80;;;18.60;99.90;;;;;;5036769;28;20064;-80
2021/07/13 01:42:40;;;;;;;15.27;13.68;;;18.60;99.90;;;;;;5036777;28;20511;-78
2021/07/13 01:45:07;;;;;;;15.45;13.95;;;18.50;99.90;;;;;;5053408;28;20396;-79
2021/07/13 01:47:38;;;;;;;15.65;13.32;;;18.50;99.90;;;;;;5036692;28;20025;-78
2021/07/13 01:50:08;;;;;;;16.73;13.60;;;18.50;99.90;;;;;;5036856;28;20376;-78
2021/07/13 01:52:36;;;;;;;24.13;13.95;;;18.50;99.90;;;;;;5054588;28;20444;-79
2021/07/13 01:55:06;;;;;;;14.55;13.20;;;18.50;99.90;;;;;;5054783;28;20095;-79
2021/07/13 01:57:33;;;;;;;14.65;12.98;;;18.50;99.90;;;;;;5036570;28;20029;-80
2021/07/13 02:00:01;;;;;;;13.93;12.55;;;18.40;99.90;;;;;;5054409;28;20472;-79
2021/07/13 02:02:28;;;;;;;14.30;13.00;;;18.40;99.90;;;;;;5036295;28;20029;-78
2021/07/13 02:04:58;;;;;;;15.20;13.68;;;18.30;99.90;;;;;;5036464;28;20067;-80
2021/07/13 02:07:25;;;;;;;14.32;12.93;;;18.30;99.90;;;;;;5036130;28;20029;-80
2021/07/13 02:09:51;;;;;;;14.45;13.02;;;18.30;99.90;;;;;;5053991;28;20083;-78
2021/07/13 02:12:18;;;;;;;16.13;14.43;;;18.30;99.90;;;;;;5058570;28;20434;-79
2021/07/13 02:14:44;;;;;;;15.02;13.30;;;18.20;99.90;;;;;;5056099;28;20523;-79
2021/07/13 02:17:10;;;;;;;14.02;12.82;;;18.20;99.90;;;;;;5055966;28;20020;-79
2021/07/13 02:19:36;;;;;;;15.82;12.95;;;18.20;99.90;;;;;;5073993;28;20020;-79
2021/07/13 02:22:03;;;;;;;16.45;14.23;;;18.20;99.90;;;;;;5072520;28;20023;-78
2021/07/13 02:24:29;;;;;;;16.00;13.23;;;18.20;99.90;;;;;;5055778;28;20040;-78
2021/07/13 02:27:12;;;;;;;14.18;12.77;;;18.20;99.90;;;;;;5072482;28;20024;-79
2021/07/13 02:30:05;;;;;;;13.88;12.57;;;18.20;99.90;;;;;;5073883;28;20437;-78
2021/07/13 02:32:35;;;;;;;15.20;13.70;;;18.20;99.90;;;;;;5071662;28;20032;-79
2021/07/13 02:35:04;;;;;;;15.50;12.88;;;18.30;99.90;;;;;;5073553;28;20016;-78
2021/07/13 02:37:31;;;;;;;14.35;12.95;;;18.20;99.90;;;;;;5055516;28;20028;-80
2021/07/13 02:39:57;;;;;;;13.73;12.32;;;18.10;99.90;;;;;;5073298;28;20082;-79
2021/07/13 02:42:23;;;;;;;14.23;12.35;;;18.10;99.90;;;;;;5073451;28;20024;-78
2021/07/13 02:44:50;;;;;;;12.52;11.25;;;18.20;99.90;;;;;;5055373;28;20029;-78
2021/07/13 02:47:16;;;;;;;12.88;11.65;;;18.20;99.90;;;;;;5055311;28;20494;-78
2021/07/13 02:49:47;;;;;;;14.23;12.23;;;18.10;99.90;;;;;;5055353;28;20384;-78
2021/07/13 02:52:19;;;;;;;14.52;11.10;;;18.10;99.90;;;;;;5055464;28;20028;-78
2021/07/13 02:54:45;;;;;;;13.20;11.73;;;18.10;99.90;;;;;;5073272;28;20024;-78
2021/07/13 02:57:12;;;;;;;14.55;13.15;;;18.00;99.90;;;;;;5055199;28;20597;-79
2021/07/13 02:59:40;;;;;;;13.88;12.45;;;18.10;99.90;;;;;;5056328;28;20111;-84
2021/07/13 03:02:06;;;;;;;13.95;12.55;;;18.10;99.90;;;;;;5056416;28;20111;-83
2021/07/13 03:04:33;;;;;;;12.43;11.23;;;18.10;99.90;;;;;;5056282;28;20032;-84
2021/07/13 03:06:59;;;;;;;13.55;12.25;;;18.10;99.90;;;;;;5074320;28;20051;-84
2021/07/13 03:09:25;;;;;;;13.77;12.38;;;18.10;99.90;;;;;;5074171;28;20025;-84
2021/07/13 03:11:51;;;;;;;16.13;13.05;;;18.00;99.90;;;;;;5053333;28;20032;-83
2021/07/13 03:14:19;;;;;;;16.30;13.68;;;18.00;99.90;;;;;;5036485;28;20048;-85
2021/07/13 03:16:47;;;;;;;16.98;13.52;;;18.10;99.90;;;;;;5036664;28;20499;-82
2021/07/13 03:19:13;;;;;;;19.80;12.93;;;18.00;99.90;;;;;;5054397;28;20029;-82
2021/07/13 03:21:45;;;;;;;17.08;12.85;;;17.90;99.90;;;;;;5036639;28;20017;-82
2021/07/13 03:24:13;;;;;;;14.65;12.32;;;17.90;99.90;;;;;;5035855;28;20036;-85
2021/07/13 03:26:42;;;;;;;15.07;12.32;;;17.90;99.90;;;;;;5054311;28;20074;-83
2021/07/13 03:29:10;;;;;;;14.90;12.98;;;17.90;99.90;;;;;;5036021;28;20854;-80
2021/07/13 03:31:37;;;;;;;15.30;13.05;;;17.90;99.90;;;;;;5053835;28;20032;-84
2021/07/13 03:34:04;;;;;;;21.17;12.75;;;17.90;99.90;;;;;;5035958;28;20029;-83
2021/07/13 03:36:32;;;;;;;16.70;13.82;;;17.90;99.90;;;;;;5036063;28;20147;-84
2021/07/13 03:38:58;;;;;;;16.73;13.60;;;17.90;99.90;;;;;;5035934;28;20031;-83
2021/07/13 03:41:24;;;;;;;13.18;11.35;;;17.90;99.90;;;;;;5036110;28;20028;-83
2021/07/13 03:43:50;;;;;;;17.73;11.32;;;17.90;99.90;;;;;;5035784;28;20091;-79
2021/07/13 03:46:16;;;;;;;15.00;12.60;;;17.90;99.90;;;;;;5052368;28;20032;-80
2021/07/13 03:48:45;;;;;;;18.02;13.93;;;17.90;99.90;;;;;;5034599;28;20108;-78
2021/07/13 03:51:25;;;;;;;10.55;9.52;;;18.00;99.90;;;;;;5053151;28;20086;-82
2021/07/13 03:53:50;;;;;;;12.95;10.15;;;19.10;99.90;;;;;;5037263;28;20104;-81
2021/07/13 03:56:16;;;;;;;11.68;10.35;;;20.20;99.90;;;;;;5056540;28;20428;-80
2021/07/13 03:58:41;;;;;;;14.63;10.10;;;20.70;99.90;;;;;;5034979;28;20349;-80
2021/07/13 04:01:07;;;;;;;13.27;10.68;;;21.20;99.90;;;;;;5035234;28;20120;-80
2021/07/13 04:03:33;;;;;;;12.30;10.02;;;21.20;99.90;;;;;;5052732;28;20033;-80
2021/07/13 04:05:59;;;;;;;15.25;10.00;;;21.60;99.90;;;;;;5034932;28;20491;-79
2021/07/13 04:08:24;;;;;;;12.25;9.88;;;21.50;99.90;;;;;;5051361;28;20025;-80
2021/07/13 04:10:50;;;;;;;14.80;11.90;;;21.50;99.90;;;;;;5052344;28;20104;-81
2021/07/13 04:13:16;;;;;;;15.27;12.02;;;21.40;99.90;;;;;;5067239;28;20522;-79
2021/07/13 04:15:42;;;;;;;19.60;14.52;;;21.00;99.90;;;;;;5075001;28;20463;-78
2021/07/13 04:18:08;;;;;;;17.30;13.90;;;20.90;99.90;;;;;;5055246;28;20024;-80
2021/07/13 04:20:34;;;;;;;18.55;12.95;;;20.80;99.90;;;;;;5055474;28;20024;-79
2021/07/13 04:22:59;;;;;;;18.20;13.40;;;20.90;99.90;;;;;;5072379;28;20115;-79
2021/07/13 04:25:25;;;;;;;18.45;13.70;;;20.70;99.90;;;;;;5072411;28;20056;-80
2021/07/13 04:27:51;;;;;;;18.75;13.50;;;20.90;99.90;;;;;;5072191;28;20020;-79
2021/07/13 04:30:16;;;;;;;23.73;16.20;;;20.90;99.90;;;;;;5055596;28;20024;-79
2021/07/13 04:32:42;;;;;;;18.35;14.30;;;21.00;99.90;;;;;;5072283;28;20029;-80
2021/07/13 04:35:08;;;;;;;16.65;13.70;;;21.00;99.90;;;;;;5072629;28;20506;-80
2021/07/13 04:37:35;;;;;;;15.63;14.02;;;20.80;99.90;;;;;;5059482;28;20044;-81
2021/07/13 04:40:00;;;;;;;16.17;13.60;;;21.10;99.90;;;;;;5076066;28;20050;-80
2021/07/13 04:42:26;;;;;;;16.17;13.27;;;21.10;99.90;;;;;;5075999;28;20123;-80
2021/07/13 04:44:52;;;;;;;12.75;11.43;;;20.90;99.90;;;;;;5076195;28;20041;-80
2021/07/13 04:47:17;;;;;;;16.52;14.20;;;20.80;99.90;;;;;;5076242;28;20020;-80
2021/07/13 04:49:43;;;;;;;12.43;11.32;;;20.70;99.90;;;;;;5075898;28;20035;-79
2021/07/13 04:52:09;;;;;;;13.57;12.18;;;20.80;99.90;;;;;;5075993;28;20024;-79
2021/07/13 04:54:34;;;;;;;13.15;11.75;;;20.80;99.90;;;;;;5076098;28;20533;-79
2021/07/13 04:57:02;;;;;;;14.48;12.63;;;20.90;99.90;;;;;;5077274;28;20074;-78
2021/07/13 04:59:28;;;;;;;14.85;13.23;;;21.20;99.90;;;;;;5059235;28;20437;-79
2021/07/13 05:01:53;;;;;;;13.93;12.65;;;21.00;99.90;;;;;;5075657;28;20024;-80
2021/07/13 05:04:19;;;;;;;14.68;12.45;;;20.90;99.90;;;;;;5075790;28;20036;-79
2021/07/13 05:06:45;;;;;;;14.85;13.38;;;20.70;99.90;;;;;;5075777;28;20021;-78
2021/07/13 05:09:10;;;;;;;16.85;14.43;;;20.60;99.90;;;;;;5075845;28;20027;-79
2021/07/13 05:11:37;;;;;;;16.33;14.77;;;20.60;99.90;;;;;;5075259;28;20020;-78
2021/07/13 05:14:04;;;;;;;15.40;13.80;;;20.90;99.90;;;;;;5076994;28;20637;-78
2021/07/13 05:16:30;;;;;;;14.88;13.30;;;21.00;99.90;;;;;;5075636;28;20112;-78
2021/07/13 05:18:57;;;;;;;13.27;11.93;;;21.10;99.90;;;;;;5059078;28;20063;-79
2021/07/13 05:21:23;;;;;;;13.25;11.88;;;21.70;99.90;;;;;;5058912;28;20036;-79
2021/07/13 05:23:49;;;;;;;14.30;12.90;;;21.70;99.90;;;;;;5058810;28;20032;-80
2021/07/13 05:26:15;;;;;;;15.30;13.70;;;21.70;99.90;;;;;;5075588;28;20020;-78
2021/07/13 05:28:40;;;;;;;12.35;11.15;;;21.70;99.90;;;;;;5082186;28;20029;-80
2021/07/13 05:31:06;;;;;;;15.48;13.85;;;21.80;99.90;;;;;;5075210;28;20035;-78
2021/07/13 05:33:32;;;;;;;15.30;13.90;;;22.00;99.90;;;;;;5057564;28;20089;-79
2021/07/13 05:35:57;;;;;;;15.35;13.85;;;21.90;99.90;;;;;;5075271;28;20016;-79
2021/07/13 05:38:23;;;;;;;16.00;14.48;;;21.80;99.90;;;;;;5075088;28;20036;-79
2021/07/13 05:40:49;;;;;;;16.45;14.85;;;21.70;99.90;;;;;;5073645;28;20024;-77
2021/07/13 05:43:15;;;;;;;15.32;13.32;;;21.70;99.90;;;;;;5074708;28;20491;-79
2021/07/13 05:45:42;;;;;;;17.25;13.88;;;21.90;99.90;;;;;;5056753;28;20024;-78
2021/07/13 05:48:08;;;;;;;18.88;14.60;;;21.80;99.90;;;;;;5056096;28;20004;-78
2021/07/13 05:50:34;;;;;;;14.00;12.70;;;21.80;99.90;;;;;;5073713;28;20149;-79
2021/07/13 05:53:02;;;;;;;16.08;13.00;;;22.00;99.90;;;;;;5073285;28;20376;-78
2021/07/13 05:55:28;;;;;;;15.40;12.88;;;22.10;99.90;;;;;;5073351;28;20111;-79
2021/07/13 05:57:53;;;;;;;14.95;13.45;;;22.10;99.90;;;;;;5073616;28;20551;-78
2021/07/13 06:00:19;;;;;;;14.25;12.95;;;22.10;99.90;;;;;;5056717;28;20021;-78
2021/07/13 06:02:45;;;;;;;14.50;13.20;;;22.30;99.90;;;;;;5056701;28;20035;-79
2021/07/13 06:05:12;;;;;;;14.90;13.50;;;22.30;99.90;;;;;;5074649;28;20032;-80
2021/07/13 06:07:42;;;;;;;13.75;12.45;;;22.50;99.90;;;;;;5056132;28;20066;-78
2021/07/13 06:10:08;;;;;;;15.43;13.93;;;22.50;99.90;;;;;;5056362;28;20498;-78
2021/07/13 06:12:33;;;;;;;14.82;13.48;;;22.50;99.90;;;;;;5073945;28;20072;-78
2021/07/13 06:14:59;;;;;;;16.98;13.80;;;22.60;99.90;;;;;;5056602;28;20460;-78
2021/07/13 06:17:26;;;;;;;14.93;13.32;;;22.60;99.90;;;;;;5074405;28;20021;-78
2021/07/13 06:19:53;;;;;;;17.40;14.38;;;22.70;99.90;;;;;;5074149;28;20051;-78
2021/07/13 06:22:19;;;;;;;14.38;12.88;;;22.80;99.90;;;;;;5063581;28;20029;-77
2021/07/13 06:24:45;;;;;;;19.13;13.48;;;22.90;99.90;;;;;;5076196;28;20039;-77
2021/07/13 06:27:10;;;;;;;14.73;13.32;;;23.10;99.90;;;;;;5076188;28;20024;-80
2021/07/13 06:29:36;;;;;;;14.73;13.32;;;23.20;99.90;;;;;;5095199;28;20032;-77
2021/07/13 06:32:02;;;;;;;14.52;13.23;;;23.30;99.90;;;;;;5095724;28;20024;-76
2021/07/13 06:34:28;;;;;;;13.80;12.60;;;23.50;99.90;;;;;;5077796;28;20141;-84
2021/07/13 06:36:54;;;;;;;13.93;12.63;;;23.70;99.90;;;;;;5095830;28;20480;-85
2021/07/13 06:39:20;;;;;;;14.32;12.85;;;23.80;99.90;;;;;;5077637;28;20528;-83
2021/07/13 06:41:45;;;;;;;13.52;12.23;;;23.80;99.90;;;;;;5077941;28;20042;-84
2021/07/13 06:44:11;;;;;;;14.98;11.35;;;24.00;99.90;;;;;;5077662;28;20032;-85
2021/07/13 06:46:38;;;;;;;13.57;11.80;;;24.20;99.90;;;;;;5077746;28;20017;-83
2021/07/13 06:49:04;;;;;;;12.18;10.85;;;24.30;99.90;;;;;;5095362;28;20431;-83
2021/07/13 06:51:30;;;;;;;11.95;10.82;;;24.60;99.90;;;;;;5095320;28;20095;-84
2021/07/13 06:53:55;;;;;;;11.35;10.05;;;24.70;99.90;;;;;;5078233;28;20396;-86
2021/07/13 06:56:21;;;;;;;12.27;11.15;;;24.70;99.90;;;;;;5077985;28;20030;-82
2021/07/13 06:58:47;;;;;;;11.85;10.65;;;24.60;99.90;;;;;;5076345;28;20138;-79
2021/07/13 07:01:12;;;;;;;12.50;10.60;;;24.80;99.90;;;;;;5076625;28;20036;-79
2021/07/13 07:03:38;;;;;;;10.70;9.35;;;25.00;99.90;;;;;;5095059;28;20039;-79
2021/07/13 07:06:04;;;;;;;18.63;10.20;;;25.20;99.90;;;;;;5077093;28;20025;-80
2021/07/13 07:08:30;;;;;;;12.13;9.40;;;25.40;99.90;;;;;;5076578;28;20498;-81
2021/07/13 07:10:55;;;;;;;10.52;9.52;;;25.50;99.90;;;;;;5076510;28;20024;-77
2021/07/13 07:13:21;;;;;;;10.70;9.60;;;25.70;99.90;;;;;;5076421;28;20048;-78
2021/07/13 07:15:46;;;;;;;9.90;8.90;;;25.90;99.90;;;;;;5076480;28;20028;-79
2021/07/13 07:18:12;;;;;;;9.88;8.18;;;26.00;99.90;;;;;;5076344;28;20459;-78
2021/07/13 07:20:50;;;;;;;9.05;8.00;;;26.20;99.90;;;;;;5111036;27;20405;-78
2021/07/13 07:23:16;;;;;;;9.27;7.47;;;26.40;99.90;;;;;;5109124;28;20100;-77
2021/07/13 07:25:41;;;;;;;8.98;7.25;;;26.60;99.60;;;;;;5111057;28;20102;-78
2021/07/13 07:28:11;;;;;;;11.60;7.10;;;26.70;98.40;;;;;;5110188;28;20016;-78
2021/07/13 07:30:37;;;;;;;7.50;6.72;;;26.80;97.00;;;;;;5109972;28;20028;-77
2021/07/13 07:33:03;;;;;;;8.00;6.60;;;26.80;96.90;;;;;;5111273;28;20379;-77
2021/07/13 07:35:29;;;;;;;7.72;7.03;;;26.90;96.90;;;;;;5109628;28;20081;-77
2021/07/13 07:37:55;;;;;;;7.57;6.88;;;26.90;96.40;;;;;;5108790;28;20020;-80
2021/07/13 07:40:22;;;;;;;9.07;6.53;;;27.00;95.00;;;;;;5109071;28;20126;-77
2021/07/13 07:42:52;;;;;;;7.85;7.05;;;26.90;95.80;;;;;;5109129;28;20020;-89
2021/07/13 07:45:20;;;;;;;9.70;6.57;;;27.10;96.70;;;;;;5111255;28;20019;-83
2021/07/13 07:47:47;;;;;;;9.23;7.82;;;27.30;95.00;;;;;;5112394;28;20023;-83
2021/07/13 07:50:14;;;;;;;7.45;6.75;;;27.40;96.20;;;;;;5110590;28;20058;-80
2021/07/13 07:52:40;;;;;;;6.82;6.07;;;27.30;95.10;;;;;;5110225;28;20024;-82
2021/07/13 07:55:07;;;;;;;9.68;6.63;;;27.40;95.10;;;;;;5110065;28;20024;-78
2021/07/13 07:57:33;;;;;;;6.80;5.82;;;27.40;94.00;;;;;;5111925;28;20028;-83
2021/07/13 07:59:59;;;;;;;7.78;6.38;;;27.50;93.60;;;;;;5109930;28;20040;-81
2021/07/13 08:02:25;;;;;;;11.45;6.47;;;27.50;94.20;;;;;;5112519;28;20043;-83
2021/07/13 08:04:51;;;;;;;8.30;5.55;;;27.60;93.50;;;;;;5113416;28;20462;-82
2021/07/13 08:07:18;;;;;;;10.73;6.30;;;27.80;93.10;;;;;;5113687;28;20459;-83
2021/07/13 08:09:44;;;;;;;5.90;5.30;;;28.00;93.60;;;;;;5113656;28;20475;-84
2021/07/13 08:12:10;;;;;;;5.57;4.93;;;28.10;93.10;;;;;;5112297;28;20478;-82
2021/07/13 08:14:36;;;;;;;7.32;5.40;;;28.20;92.50;;;;;;5111868;28;20023;-85
2021/07/13 08:17:02;;;;;;;5.72;4.75;;;28.40;91.50;;;;;;5113224;28;20475;-83
2021/07/13 08:19:28;;;;;;;6.40;4.63;;;28.40;90.30;;;;;;5112809;28;20060;-82
2021/07/13 08:21:55;;;;;;;6.50;4.43;;;28.50;89.10;;;;;;5114308;28;20024;-84
2021/07/13 08:24:21;;;;;;;6.97;3.83;;;28.60;84.40;;;;;;5112792;28;20398;-85
2021/07/13 08:26:46;;;;;;;6.28;4.05;;;28.60;85.50;;;;;;5113792;28;20024;-87
2021/07/13 08:29:12;;;;;;;7.60;4.20;;;28.60;83.20;;;;;;5113784;28;20028;-83
2021/07/13 08:31:38;;;;;;;7.13;4.03;;;28.70;85.00;;;;;;5105832;28;20046;-84
2021/07/13 08:34:04;;;;;;;5.43;4.30;;;28.70;83.20;;;;;;5100767;28;20050;-84
2021/07/13 08:36:30;;;;;;;5.30;3.97;;;28.70;81.90;;;;;;5103048;28;20000;-84
2021/07/13 08:38:56;;;;;;;9.15;4.03;;;28.90;84.00;;;;;;5102366;28;20036;-84
2021/07/13 08:41:22;;;;;;;4.85;3.80;;;29.00;83.00;;;;;;5099584;28;20039;-82
2021/07/13 08:43:51;;;;;;;3.92;3.47;;;29.10;80.60;;;;;;5097451;28;20071;-83
2021/07/13 08:46:18;;;;;;;6.10;3.70;;;29.10;77.70;;;;;;5098612;28;20474;-83
2021/07/13 08:48:49;;;;;;;5.00;3.58;;;29.10;78.50;;;;;;5099796;28;20020;-83
2021/07/13 08:51:18;;;;;;;7.68;3.25;;;29.20;77.70;;;;;;5099907;28;20089;-84
2021/07/13 08:53:44;;;;;;;4.90;3.17;;;29.20;78.30;;;;;;5095644;28;20435;-84
2021/07/13 08:56:10;;;;;;;3.65;3.08;;;29.30;76.70;;;;;;5096733;28;20016;-84
2021/07/13 08:58:35;;;;;;;4.30;3.22;;;29.40;74.50;;;;;;5096852;28;20374;-83
2021/07/13 09:01:01;;;;;;;6.50;3.47;;;29.40;74.60;;;;;;5096476;28;20051;-83
2021/07/13 09:03:30;;;;;;;4.70;3.67;;;29.50;76.10;;;;;;5095833;28;20025;-83
2021/07/13 09:05:59;;;;;;;7.05;3.50;;;29.60;76.00;;;;;;5096621;28;20032;-83
2021/07/13 09:08:27;;;;;;;4.90;3.10;;;29.70;74.00;;;;;;5097095;28;20024;-84
2021/07/13 09:11:21;;;;;;;4.28;3.05;;;29.90;74.50;;;;;;5099395;28;20020;-84
2021/07/13 09:13:59;;;;;;;5.32;3.15;;;30.10;74.00;;;;;;5100166;28;20483;-83
2021/07/13 09:16:30;;;;;;;5.93;3.22;;;30.40;73.80;;;;;;5100587;28;20032;-83
2021/07/13 09:19:02;;;;;;;4.18;3.08;;;30.40;70.30;;;;;;5100168;28;20048;-84
2021/07/13 09:21:35;;;;;;;5.78;2.92;;;30.30;72.50;;;;;;5095561;28;20024;-84
2021/07/13 09:24:04;;;;;;;10.57;3.25;;;30.30;71.90;;;;;;5094596;28;20024;-82
2021/07/13 09:26:36;;;;;;;6.35;2.63;;;30.40;70.30;;;;;;5096050;28;20016;-84
2021/07/13 09:29:01;;;;;;;4.13;2.58;;;30.40;70.60;;;;;;5095819;28;20044;-83
2021/07/13 09:31:27;;;;;;;4.00;2.88;;;30.50;69.70;;;;;;5095377;28;20031;-84
2021/07/13 09:33:53;;;;;;;3.38;2.55;;;30.40;69.70;;;;;;5094924;28;20028;-83
2021/07/13 09:38:58;;;;;;;7.13;2.83;;;30.60;70.30;;;;;;5041472;22;20072;-83
2021/07/13 09:41:30;;;;;;;3.00;2.58;;;30.70;72.20;;;;;;5026818;28;20025;-83
2021/07/13 09:44:05;;;;;;;4.50;2.40;;;30.60;69.00;;;;;;5057054;28;20162;-82
2021/07/13 09:46:32;;;;;;;5.25;2.38;;;30.80;69.00;;;;;;5038547;28;20105;-83
2021/07/13 09:49:24;;;;;;;6.75;2.50;;;30.90;68.00;;;;;;5040139;28;20029;-84
2021/07/13 09:51:57;;;;;;;2.72;2.38;;;31.00;69.00;;;;;;5037593;28;20116;-83
2021/07/13 09:54:34;;;;;;;4.40;2.42;;;31.10;66.20;;;;;;5039635;28;20036;-84
2021/07/13 09:57:17;;;;;;;6.63;2.40;;;31.10;66.90;;;;;;5039704;28;20043;-84
2021/07/13 09:59:51;;;;;;;6.20;2.60;;;31.20;67.70;;;;;;5041089;28;20404;-84
2021/07/13 10:02:25;;;;;;;3.72;2.50;;;31.30;67.00;;;;;;5039803;28;20021;-84
2021/07/13 10:04:51;;;;;;;6.45;2.30;;;31.20;67.90;;;;;;5039161;28;20040;-84
2021/07/13 10:07:19;;;;;;;5.57;2.53;;;31.30;68.30;;;;;;5039873;28;20025;-84
2021/07/13 10:09:50;;;;;;;5.63;2.40;;;31.30;68.10;;;;;;5038892;28;20039;-83
2021/07/13 10:12:22;;;;;;;5.32;2.42;;;31.40;68.40;;;;;;5039995;28;20056;-84
2021/07/13 10:14:49;;;;;;;8.18;2.50;;;31.70;68.70;;;;;;5038964;28;20052;-84
2021/07/13 10:17:16;;;;;;;4.82;2.58;;;31.80;68.40;;;;;;5038533;28;20031;-83
2021/07/13 10:19:48;;;;;;;5.35;2.33;;;31.70;66.40;;;;;;5039616;28;20131;-83
2021/07/13 10:22:16;;;;;;;5.57;2.60;;;31.80;65.40;;;;;;5056981;28;20037;-83
2021/07/13 10:24:48;;;;;;;4.50;2.10;;;31.90;65.30;;;;;;5038596;28;20021;-84
2021/07/13 10:27:23;;;;;;;4.45;2.10;;;32.00;64.00;;;;;;5039072;28;20581;-84
2021/07/13 10:29:49;;;;;;;4.85;1.92;;;32.20;64.30;;;;;;5057785;28;20499;-84
2021/07/13 10:32:17;;;;;;;3.75;1.70;;;32.30;63.50;;;;;;5042734;28;20045;-83
2021/07/13 10:34:56;;;;;;;4.20;1.80;;;32.20;61.60;;;;;;5039329;28;20036;-84
2021/07/13 10:37:28;;;;;;;2.67;1.90;;;32.30;60.10;;;;;;5040050;28;20051;-84
2021/07/13 10:39:56;;;;;;;3.30;1.60;;;32.40;58.80;;;;;;5037783;28;20048;-84
2021/07/13 10:42:40;;;;;;;3.97;1.70;;;32.60;60.20;;;;;;5038007;28;20029;-83
2021/07/13 10:45:27;;;;;;;3.55;1.63;;;32.60;59.20;;;;;;5038087;28;20035;-84
2021/07/13 10:48:21;;;;;;;3.45;1.45;;;32.60;58.70;;;;;;5039437;28;20021;-85
2021/07/13 10:50:51;;;;;;;6.05;1.38;;;32.70;58.20;;;;;;5039973;28;20032;-88
2021/07/13 10:53:29;;;;;;;4.93;1.40;;;32.80;55.50;;;;;;5039047;28;20021;-87
2021/07/13 10:56:04;;;;;;;2.00;1.60;;;32.80;55.70;;;;;;5037313;28;20439;-85
2021/07/13 10:58:35;;;;;;;3.97;1.58;;;32.90;55.60;;;;;;5037705;28;20047;-84
2021/07/13 11:01:05;;;;;;;4.10;1.50;;;32.90;56.60;;;;;;5055987;28;20057;-84
2021/07/13 11:03:30;;;;;;;3.90;1.42;;;33.00;56.50;;;;;;5036532;28;20044;-86
2021/07/13 11:06:09;;;;;;;5.85;1.50;;;32.80;53.60;;;;;;5036153;28;20021;-86
2021/07/13 11:08:41;;;;;;;3.53;1.67;;;32.70;54.60;;;;;;5035978;28;20025;-84
2021/07/13 11:11:30;;;;;;;6.13;1.67;;;32.90;55.40;;;;;;5036135;28;20117;-85
2021/07/13 11:13:58;;;;;;;4.25;1.60;;;33.10;56.10;;;;;;5035779;28;20039;-85
2021/07/13 11:16:28;;;;;;;5.47;1.63;;;33.10;53.70;;;;;;5036258;28;20361;-85
2021/07/13 11:18:56;;;;;;;4.70;1.88;;;33.10;53.40;;;;;;5035939;28;20056;-83
2021/07/13 11:21:27;;;;;;;5.60;1.30;;;33.20;54.50;;;;;;5037249;28;20033;-84
2021/07/13 11:24:09;;;;;;;4.22;1.40;;;33.20;54.00;;;;;;5037836;28;20055;-87
2021/07/13 11:26:37;;;;;;;7.03;1.63;;;33.10;53.20;;;;;;5039326;28;20040;-86
2021/07/13 11:29:14;;;;;;;3.35;1.60;;;33.10;54.60;;;;;;5038862;28;20031;-86
2021/07/13 11:31:40;;;;;;;3.55;1.27;;;32.90;54.80;;;;;;5039274;28;20074;-88
2021/07/13 11:34:12;;;;;;;5.85;1.50;;;32.80;54.70;;;;;;5041837;28;20112;-87
2021/07/13 11:36:57;;;;;;;2.25;1.50;;;32.80;55.30;;;;;;5054128;28;20021;-86
2021/07/13 11:39:32;;;;;;;3.53;1.50;;;32.60;55.60;;;;;;5036069;28;20048;-86
2021/07/13 11:42:02;;;;;;;3.75;1.60;;;32.50;55.70;;;;;;5036116;28;20029;-87
2021/07/13 11:44:29;;;;;;;3.78;1.70;;;32.50;55.60;;;;;;5035995;28;20060;-87
2021/07/13 11:46:55;;;;;;;9.00;2.20;;;32.70;56.30;;;;;;5037215;28;20094;-87
2021/07/13 11:49:27;;;;;;;4.25;1.60;;;32.90;56.00;;;;;;5035834;28;20464;-87
2021/07/13 11:51:52;;;;;;;5.80;1.67;;;32.80;55.90;;;;;;5036472;28;20017;-87
2021/07/13 11:54:20;;;;;;;5.00;1.50;;;32.60;56.00;;;;;;5035793;28;20029;-86
2021/07/13 11:56:49;;;;;;;3.10;1.60;;;32.50;56.40;;;;;;5035764;28;20028;-87
2021/07/13 11:59:16;;;;;;;4.35;1.40;;;32.50;58.20;;;;;;5035649;28;20033;-86
2021/07/13 12:01:47;;;;;;;17.60;2.20;;;32.60;58.90;;;;;;5035787;28;20028;-87
2021/07/13 12:04:13;;;;;;;2.13;1.60;;;32.60;58.20;;;;;;5036634;28;20025;-86
2021/07/13 12:06:41;;;;;;;9.15;1.95;;;32.60;61.10;;;;;;5037867;28;20032;-86
2021/07/13 12:09:09;;;;;;;4.63;1.90;;;32.60;60.30;;;;;;5039206;28;20032;-86
2021/07/13 12:11:36;;;;;;;11.15;2.63;;;32.70;58.30;;;;;;5039277;28;20141;-86
2021/07/13 12:14:04;;;;;;;8.05;3.15;;;32.80;60.10;;;;;;5039336;28;20025;-86
2021/07/13 12:16:34;;;;;;;5.43;3.25;;;32.90;58.50;;;;;;5039270;28;20024;-86
2021/07/13 12:19:05;;;;;;;6.80;3.30;;;32.80;59.00;;;;;;5038842;28;20025;-86
2021/07/13 12:21:33;;;;;;;5.25;2.50;;;32.80;59.00;;;;;;5038982;28;20083;-86
2021/07/13 12:24:00;;;;;;;10.43;2.72;;;32.50;59.70;;;;;;5038932;28;20017;-87
2021/07/13 12:26:33;;;;;;;3.17;1.90;;;32.30;59.70;;;;;;5039111;28;20082;-87
2021/07/13 12:29:05;;;;;;;3.75;2.17;;;32.20;60.30;;;;;;5039220;28;20052;-86
2021/07/13 12:31:33;;;;;;;5.70;2.00;;;32.20;59.80;;;;;;5039407;28;20033;-86
2021/07/13 12:33:58;;;;;;;5.97;1.98;;;32.20;60.80;;;;;;5039001;28;20439;-87
2021/07/13 12:36:29;;;;;;;5.20;1.70;;;32.40;61.80;;;;;;5038842;28;20068;-86
2021/07/13 12:39:11;;;;;;;3.15;1.70;;;32.40;59.80;;;;;;5035043;28;20136;-86
2021/07/13 12:41:36;;;;;;;4.45;2.35;;;32.70;59.50;;;;;;5035270;28;20025;-87
2021/07/13 12:44:45;;;;;;;3.78;1.73;;;32.90;58.00;;;;;;5035509;28;20346;-86
2021/07/13 12:47:31;;;;;;;7.80;1.92;;;32.90;59.50;;;;;;5025018;28;20214;-87